Decoded Metar for KDAA (FORT BELVOIR/DAV in VA, USA) (IATA:DAA) | Meteo·Mobile Aviation Weather
aviador You're here:

KDAA Decoded Metar

FORT BELVOIR/DAV in VA, USA
Report Time2018-09-21 12:14:00
UTC Time2018-09-21 12:31:21
Flight Rules vfr VFR
WindCalm
Visibility9999 m
Phenomena:Light Rain
Clouds:Overcast 036 Hf
Ceiling3,600 ft
Temp21°C (ISA +6)
Dew Point21°C (100% RH)
QNH1024 hPa
Density Alt741 ft
Elevation69 ft
Report Wrong Elevation
Raw Report
SPECI KDAA 211214Z AUTO 00000KT 10SM -RA OVC036 21/21 A3024 RMK AO2
RAB14 SLP243 TSNO $=

Extra information for KDAA:More info

Metar Taf Metar & Taf Last 4 Metars F.Rules Stats Wind Profile Meteogram Temp Stats Airport Information Weather charts Add Link Nearby VenuesMetar ALERT Operation Metar Decoded Social comments

AIRNAV info for KDAA